createdAt,value
2022-12-01T14:51:32.990Z,5.00
2022-12-01T14:51:45.162Z,5.00
2022-12-01T14:51:56.238Z,7.00
2022-12-01T14:52:07.294Z,8.00
2022-12-01T14:52:18.388Z,8.00
2022-12-01T14:52:29.477Z,8.00
2022-12-01T14:52:40.575Z,8.00
2022-12-01T14:52:51.667Z,8.00
2022-12-01T14:53:02.768Z,8.00
2022-12-01T14:53:13.850Z,8.00
2022-12-01T14:53:24.945Z,8.00
2022-12-01T14:53:52.179Z,5.00
2022-12-01T14:54:04.235Z,5.00
2022-12-01T14:54:16.295Z,6.00
2022-12-01T14:54:28.350Z,8.00
2022-12-01T14:54:40.431Z,9.00
2022-12-01T14:54:52.672Z,9.00
2022-12-01T14:55:03.745Z,9.00
2022-12-01T14:55:48.607Z,5.00
2022-12-01T14:56:00.698Z,5.00
2022-12-01T14:56:12.787Z,5.00
2022-12-01T14:56:24.850Z,5.00
2022-12-01T14:56:36.923Z,5.00
2022-12-01T14:56:49.008Z,5.00
2022-12-01T14:57:05.889Z,8.00
2022-12-01T14:57:16.722Z,8.00
2022-12-01T14:57:24.051Z,8.00
2022-12-01T14:57:36.099Z,9.00
2022-12-01T14:57:48.135Z,11.00
2022-12-01T14:58:00.167Z,11.00
2022-12-01T14:58:12.235Z,13.00
2022-12-01T14:58:24.311Z,14.00
2022-12-01T14:58:36.367Z,15.00
2022-12-01T14:58:48.443Z,16.00
2022-12-01T14:59:00.531Z,17.00
2022-12-01T14:59:12.612Z,18.00
2022-12-01T14:59:23.633Z,19.00
2022-12-01T14:59:35.731Z,19.00
2022-12-01T14:59:47.819Z,19.00
2022-12-01T15:02:14.410Z,5.00
2022-12-01T15:02:26.579Z,5.00
2022-12-01T15:02:38.414Z,5.00
2022-12-01T15:02:49.803Z,6.00
2022-12-01T15:03:00.852Z,7.00
2022-12-01T15:03:12.951Z,8.00
2022-12-01T15:03:28.916Z,8.00
2022-12-01T15:03:36.374Z,8.00
2022-12-01T15:03:47.447Z,8.00
2022-12-01T15:03:58.516Z,8.00
2022-12-01T15:04:10.544Z,10.00
2022-12-01T15:04:22.608Z,11.00
2022-12-01T15:04:34.676Z,12.00
2022-12-01T15:04:45.723Z,13.00
2022-12-01T15:04:56.789Z,13.00
2022-12-01T15:05:07.865Z,13.00
2022-12-01T15:05:19.946Z,15.00
2022-12-01T15:05:30.975Z,16.00
2022-12-01T15:05:42.042Z,16.00
2022-12-01T15:05:53.112Z,16.00
2022-12-01T15:06:04.184Z,16.00
2022-12-01T15:06:15.275Z,16.00
2022-12-01T15:06:26.316Z,17.00
2022-12-01T15:06:37.380Z,17.00
